createdAt,value
2022-10-18T00:02:26.280Z,11.68
2022-10-18T00:04:52.719Z,11.79
2022-10-18T00:07:19.161Z,11.80
2022-10-18T00:09:45.653Z,11.87
2022-10-18T00:12:12.154Z,11.91
2022-10-18T00:14:38.570Z,11.92
2022-10-18T00:17:05.018Z,11.91
2022-10-18T00:19:31.524Z,11.92
2022-10-18T00:21:57.965Z,11.93
2022-10-18T00:24:24.406Z,12.02
2022-10-18T00:26:50.831Z,12.03
2022-10-18T00:29:17.379Z,12.00
2022-10-18T00:31:44.371Z,11.99
2022-10-18T00:34:15.956Z,12.03
2022-10-18T00:36:43.482Z,12.05
2022-10-18T00:39:15.695Z,12.02
2022-10-18T00:41:42.251Z,12.00
2022-10-18T00:44:11.575Z,12.00
2022-10-18T00:46:40.929Z,12.01
2022-10-18T00:49:25.060Z,12.09
2022-10-18T00:52:30.511Z,12.09
2022-10-18T00:54:58.055Z,12.10
2022-10-18T00:57:25.745Z,12.17
2022-10-18T00:59:53.564Z,12.16
2022-10-18T01:02:20.483Z,12.17
2022-10-18T01:04:47.893Z,12.16
2022-10-18T01:07:26.218Z,12.16
2022-10-18T01:10:11.433Z,12.23
2022-10-18T01:12:50.650Z,12.22
2022-10-18T01:15:23.944Z,12.22
2022-10-18T01:18:00.274Z,12.28
2022-10-18T01:24:38.890Z,12.45
2022-10-18T01:27:29.448Z,12.42
2022-10-18T01:30:19.680Z,12.41
2022-10-18T01:32:54.254Z,12.43
2022-10-18T01:35:29.756Z,12.45
2022-10-18T01:37:59.741Z,12.47
2022-10-18T01:40:27.311Z,12.49
2022-10-18T01:42:54.406Z,12.49
2022-10-18T01:45:22.798Z,12.51
2022-10-18T01:47:50.820Z,12.54
2022-10-18T01:50:28.660Z,12.58
2022-10-18T01:52:55.114Z,12.64
2022-10-18T01:56:13.901Z,12.66
2022-10-18T01:58:52.419Z,12.65
2022-10-18T02:01:29.526Z,12.69
2022-10-18T02:04:04.131Z,12.69
2022-10-18T02:06:37.220Z,12.69
2022-10-18T02:09:18.757Z,12.71
2022-10-18T02:11:51.206Z,12.69
2022-10-18T02:14:19.481Z,12.69
2022-10-18T02:16:51.658Z,12.73
2022-10-18T02:19:28.546Z,12.72
2022-10-18T02:21:58.033Z,12.74
2022-10-18T02:24:32.713Z,12.75
2022-10-18T02:26:59.225Z,12.69
2022-10-18T02:29:25.967Z,12.64
2022-10-18T02:32:03.303Z,12.63
2022-10-18T02:34:35.725Z,12.64
2022-10-18T02:37:03.055Z,12.64
2022-10-18T02:39:35.518Z,12.66
2022-10-18T02:42:06.762Z,12.61
2022-10-18T02:44:34.220Z,12.60
2022-10-18T02:47:01.347Z,12.62
2022-10-18T02:49:27.956Z,12.57
2022-10-18T02:51:54.376Z,12.58
2022-10-18T02:54:20.893Z,12.57
2022-10-18T02:56:47.346Z,12.51
2022-10-18T02:59:13.861Z,12.52
2022-10-18T03:01:40.384Z,12.50
2022-10-18T03:04:07.157Z,12.47
2022-10-18T03:06:34.214Z,12.47
2022-10-18T03:09:05.747Z,12.46
2022-10-18T03:11:32.398Z,12.44
2022-10-18T03:13:58.843Z,12.40
2022-10-18T03:16:25.370Z,12.38
2022-10-18T03:18:51.827Z,12.38
2022-10-18T03:21:18.459Z,12.39
2022-10-18T03:23:45.018Z,12.43
2022-10-18T03:26:11.507Z,12.44
2022-10-18T03:28:38.052Z,12.46
2022-10-18T03:31:04.987Z,12.49
2022-10-18T03:33:32.679Z,12.47
2022-10-18T03:35:59.251Z,12.42
2022-10-18T03:38:25.807Z,12.46
2022-10-18T03:40:52.243Z,12.45
2022-10-18T03:43:18.816Z,12.37
2022-10-18T03:45:45.321Z,12.38
2022-10-18T03:48:11.821Z,12.34
2022-10-18T03:50:38.411Z,12.29
2022-10-18T03:53:04.963Z,12.25
2022-10-18T03:55:31.430Z,12.22
2022-10-18T03:57:57.966Z,12.19
2022-10-18T04:00:24.477Z,12.17
2022-10-18T04:02:53.444Z,12.18
2022-10-18T04:05:23.998Z,12.11
2022-10-18T04:07:50.815Z,12.11
2022-10-18T04:10:18.604Z,12.18
2022-10-18T04:12:45.129Z,12.08
2022-10-18T04:15:11.730Z,12.05
2022-10-18T04:17:38.200Z,12.04
2022-10-18T04:20:05.186Z,11.98
2022-10-18T04:22:31.645Z,11.93
2022-10-18T04:24:58.365Z,11.90
2022-10-18T04:27:24.962Z,11.85
2022-10-18T04:29:51.372Z,11.80
2022-10-18T04:32:17.798Z,11.78
2022-10-18T04:34:44.236Z,11.70
2022-10-18T04:37:10.745Z,11.59
2022-10-18T04:39:37.181Z,11.54
2022-10-18T04:42:03.685Z,11.50
2022-10-18T04:44:30.155Z,11.47
2022-10-18T04:46:56.590Z,11.46
2022-10-18T04:49:23.143Z,11.44
2022-10-18T04:51:49.572Z,11.50
2022-10-18T04:54:16.089Z,11.54
2022-10-18T04:56:42.560Z,11.49
2022-10-18T04:59:08.988Z,11.37
2022-10-18T05:01:35.474Z,11.28
2022-10-18T05:04:01.969Z,11.22
2022-10-18T05:06:28.475Z,11.24
2022-10-18T05:08:54.969Z,11.23
2022-10-18T05:11:21.466Z,11.16
2022-10-18T05:13:50.161Z,11.07
2022-10-18T05:16:17.664Z,11.05
2022-10-18T05:18:44.171Z,11.05
2022-10-18T05:21:10.853Z,11.06
2022-10-18T05:23:37.317Z,11.09
2022-10-18T05:26:08.091Z,11.12
2022-10-18T05:28:40.166Z,11.18
2022-10-18T05:31:09.910Z,11.25
2022-10-18T05:33:36.763Z,11.30
2022-10-18T05:36:03.941Z,11.43
2022-10-18T05:38:31.055Z,11.40
2022-10-18T05:40:58.343Z,11.67
2022-10-18T05:43:28.888Z,11.84
2022-10-18T05:45:55.705Z,11.89
2022-10-18T05:48:22.209Z,12.05
2022-10-18T05:50:48.646Z,12.48
2022-10-18T05:53:35.168Z,12.82
2022-10-18T05:56:02.711Z,12.80
2022-10-18T05:58:29.340Z,12.78
2022-10-18T06:01:01.539Z,12.82
2022-10-18T06:03:28.350Z,13.00
2022-10-18T06:06:09.362Z,13.15
2022-10-18T06:08:37.424Z,13.16
2022-10-18T06:11:07.509Z,13.29
2022-10-18T06:13:34.281Z,13.50
2022-10-18T06:16:00.768Z,13.69
2022-10-18T06:18:27.259Z,13.80
2022-10-18T06:20:58.916Z,13.89
2022-10-18T06:23:27.385Z,13.97
2022-10-18T06:25:57.837Z,13.94
2022-10-18T06:28:24.302Z,13.95
2022-10-18T06:30:50.773Z,13.97
2022-10-18T06:33:17.205Z,14.06
2022-10-18T06:35:43.624Z,14.19
2022-10-18T06:38:10.070Z,14.37
2022-10-18T06:40:38.157Z,14.44
2022-10-18T06:43:19.958Z,14.51
2022-10-18T06:45:48.218Z,14.58
2022-10-18T06:48:14.777Z,14.61
2022-10-18T06:50:41.350Z,14.68
2022-10-18T06:53:09.049Z,14.74
2022-10-18T06:55:35.885Z,14.83
2022-10-18T06:58:02.348Z,14.89
2022-10-18T07:00:28.813Z,14.92
2022-10-18T07:02:57.171Z,14.93
2022-10-18T07:05:23.890Z,14.99
2022-10-18T07:07:54.201Z,15.03
2022-10-18T07:10:23.659Z,15.06
2022-10-18T07:12:51.599Z,15.18
2022-10-18T07:15:22.522Z,15.23
2022-10-18T07:17:49.427Z,15.31
2022-10-18T07:20:16.745Z,15.36
2022-10-18T07:22:43.188Z,15.43
2022-10-18T07:25:10.267Z,15.46
2022-10-18T07:27:41.239Z,15.48
2022-10-18T07:30:09.687Z,15.62
2022-10-18T07:32:36.638Z,15.69
2022-10-18T07:35:04.437Z,15.77
2022-10-18T07:37:31.258Z,15.77
2022-10-18T07:39:57.948Z,15.85
2022-10-18T07:42:24.947Z,15.88
2022-10-18T07:44:51.415Z,15.96
2022-10-18T07:47:18.137Z,16.02
2022-10-18T07:49:44.629Z,16.08
2022-10-18T07:52:11.472Z,16.10
2022-10-18T07:54:38.006Z,16.13
2022-10-18T07:57:05.071Z,16.20
2022-10-18T07:59:31.551Z,16.22
2022-10-18T08:01:58.099Z,16.17
2022-10-18T08:04:24.594Z,16.22
2022-10-18T08:06:51.079Z,16.25
2022-10-18T08:09:17.526Z,16.32
2022-10-18T08:11:44.040Z,16.38
2022-10-18T08:14:10.509Z,16.44
2022-10-18T08:16:36.937Z,16.54
2022-10-18T08:19:04.231Z,16.72
2022-10-18T08:21:30.662Z,16.93
2022-10-18T08:23:57.113Z,17.00
2022-10-18T08:26:23.756Z,17.03
2022-10-18T08:28:58.332Z,17.15
2022-10-18T08:31:30.455Z,17.35
2022-10-18T08:33:57.292Z,17.42
2022-10-18T08:36:24.335Z,17.52
2022-10-18T08:38:50.878Z,17.53
2022-10-18T08:41:17.258Z,17.60
2022-10-18T08:44:07.601Z,17.68
2022-10-18T08:46:37.015Z,17.67
2022-10-18T08:49:05.388Z,17.69
2022-10-18T08:51:42.924Z,17.72
2022-10-18T08:54:15.666Z,17.89
2022-10-18T08:56:49.343Z,17.91
2022-10-18T08:59:15.906Z,17.97
2022-10-18T09:02:19.622Z,18.11
2022-10-18T09:04:46.024Z,18.18
2022-10-18T09:07:37.247Z,18.27
2022-10-18T09:10:26.047Z,18.15
2022-10-18T09:13:29.982Z,18.15
2022-10-18T09:16:10.901Z,18.29
2022-10-18T09:18:58.411Z,18.22
2022-10-18T09:21:46.348Z,18.21
2022-10-18T09:24:18.156Z,18.28
2022-10-18T09:26:47.192Z,18.10
2022-10-18T09:29:47.631Z,18.04
2022-10-18T09:32:38.430Z,18.06
2022-10-18T09:35:16.761Z,18.05
2022-10-18T09:37:44.646Z,18.21
2022-10-18T09:40:27.946Z,18.31
2022-10-18T09:43:00.496Z,18.17
2022-10-18T09:45:32.586Z,18.19
2022-10-18T09:48:03.460Z,18.35
2022-10-18T09:50:37.842Z,18.34
2022-10-18T09:53:12.161Z,18.34
2022-10-18T09:55:52.535Z,18.45
2022-10-18T09:58:20.842Z,18.76
2022-10-18T10:00:52.641Z,18.58
2022-10-18T10:03:19.444Z,18.76
2022-10-18T10:05:46.158Z,18.73
2022-10-18T10:08:12.636Z,18.71
2022-10-18T10:10:42.659Z,19.03
2022-10-18T10:13:22.090Z,19.05
2022-10-18T10:16:03.002Z,19.19
2022-10-18T10:18:32.199Z,19.42
2022-10-18T10:21:00.873Z,19.44
2022-10-18T10:23:37.684Z,19.46
2022-10-18T10:26:20.280Z,19.36
2022-10-18T10:28:48.851Z,19.51
2022-10-18T10:31:24.547Z,19.60
2022-10-18T10:34:06.669Z,19.64
2022-10-18T10:36:34.192Z,19.80
2022-10-18T10:39:11.812Z,19.81
2022-10-18T10:41:40.541Z,19.85
2022-10-18T10:44:15.698Z,19.74
2022-10-18T10:46:42.230Z,19.73
2022-10-18T10:49:40.172Z,20.04
2022-10-18T10:52:26.777Z,20.34
2022-10-18T10:55:05.820Z,20.55
2022-10-18T10:57:32.734Z,20.18
2022-10-18T10:59:59.978Z,19.78
2022-10-18T11:02:32.272Z,19.48
2022-10-18T11:05:45.320Z,19.44
2022-10-18T11:08:16.920Z,19.75
2022-10-18T11:11:23.168Z,19.96
2022-10-18T11:14:13.635Z,20.07
2022-10-18T11:16:54.960Z,20.02
2022-10-18T11:19:37.097Z,20.00
2022-10-18T11:22:07.100Z,20.22
2022-10-18T11:24:35.914Z,20.34
2022-10-18T11:27:14.651Z,20.71
2022-10-18T11:29:58.416Z,20.41
2022-10-18T11:32:39.669Z,20.33
2022-10-18T11:35:27.905Z,20.31
2022-10-18T11:38:12.156Z,20.44
2022-10-18T11:40:57.278Z,20.45
2022-10-18T11:44:03.937Z,20.78
2022-10-18T11:46:57.649Z,20.79
2022-10-18T11:49:54.394Z,20.69
2022-10-18T11:52:20.735Z,21.03
2022-10-18T11:54:50.493Z,21.12
2022-10-18T11:57:41.739Z,21.09
2022-10-18T12:00:34.294Z,21.26
2022-10-18T12:03:14.015Z,21.10
2022-10-18T12:05:44.450Z,21.33
2022-10-18T12:08:16.087Z,21.66
2022-10-18T12:11:06.572Z,21.90
2022-10-18T12:13:40.009Z,22.11
2022-10-18T12:16:08.527Z,22.12
2022-10-18T12:18:43.135Z,22.37
2022-10-18T12:21:12.987Z,22.57
2022-10-18T12:23:49.472Z,22.84
2022-10-18T12:26:17.050Z,22.52
2022-10-18T12:29:18.511Z,22.42
2022-10-18T12:32:05.915Z,22.91
2022-10-18T12:34:38.581Z,22.98
2022-10-18T12:37:13.323Z,22.97
2022-10-18T12:40:05.491Z,23.15
2022-10-18T12:42:33.939Z,22.94
2022-10-18T12:45:21.179Z,23.22
2022-10-18T12:47:47.725Z,23.30
2022-10-18T12:50:42.522Z,22.72
2022-10-18T12:53:12.308Z,22.51
2022-10-18T12:55:45.522Z,22.87
2022-10-18T12:58:14.769Z,23.04
2022-10-18T13:00:44.147Z,23.15
2022-10-18T13:03:13.606Z,23.27
2022-10-18T13:06:02.976Z,23.36
2022-10-18T13:08:34.069Z,23.17
2022-10-18T13:11:12.513Z,23.09
2022-10-18T13:14:00.175Z,23.25
2022-10-18T13:16:52.880Z,23.76
2022-10-18T13:19:37.726Z,23.98
2022-10-18T13:22:35.231Z,24.45
2022-10-18T13:25:17.015Z,24.32
2022-10-18T13:27:58.395Z,24.13
2022-10-18T13:30:45.730Z,24.20
2022-10-18T13:33:34.684Z,24.08
2022-10-18T13:36:04.123Z,24.46
2022-10-18T13:38:36.541Z,24.41
2022-10-18T13:41:14.777Z,24.79
2022-10-18T13:43:52.208Z,24.51
2022-10-18T13:46:45.672Z,24.61
2022-10-18T13:49:40.189Z,24.58
2022-10-18T13:52:25.742Z,24.65
2022-10-18T13:55:17.015Z,24.54
2022-10-18T13:57:55.639Z,25.48
2022-10-18T14:00:48.973Z,27.56
2022-10-18T14:06:36.132Z,28.31
2022-10-18T14:09:25.404Z,26.73
2022-10-18T14:12:12.299Z,25.75
2022-10-18T14:15:03.796Z,26.04
2022-10-18T14:17:36.328Z,27.53
2022-10-18T14:20:16.828Z,27.64
2022-10-18T14:22:49.716Z,28.58
2022-10-18T14:25:36.976Z,30.17
2022-10-18T14:28:12.595Z,29.74
2022-10-18T14:30:59.547Z,27.72
2022-10-18T14:33:44.780Z,27.86
2022-10-18T14:36:21.877Z,26.97
2022-10-18T14:39:01.972Z,26.33
2022-10-18T14:41:47.295Z,27.57
2022-10-18T14:44:18.478Z,28.06
2022-10-18T14:46:49.442Z,26.59
2022-10-18T14:49:18.249Z,26.48
2022-10-18T14:51:48.928Z,27.16
2022-10-18T14:54:19.191Z,26.73
2022-10-18T14:56:46.108Z,25.86
2022-10-18T14:59:18.546Z,25.58
2022-10-18T15:02:05.140Z,25.35
2022-10-18T15:04:34.570Z,25.36
2022-10-18T15:07:06.194Z,25.24
2022-10-18T15:09:35.103Z,25.31
2022-10-18T15:12:06.509Z,25.27
2022-10-18T15:14:35.482Z,25.30
2022-10-18T15:17:14.553Z,24.87
2022-10-18T15:19:54.078Z,24.67
2022-10-18T15:22:31.686Z,24.48
2022-10-18T15:25:21.063Z,24.34
2022-10-18T15:27:50.097Z,24.11
2022-10-18T15:30:24.809Z,24.09
2022-10-18T15:32:59.874Z,23.77
2022-10-18T15:35:35.104Z,23.74
2022-10-18T15:38:14.393Z,23.59
2022-10-18T15:40:42.066Z,23.37
2022-10-18T15:43:23.625Z,23.13
2022-10-18T15:46:01.793Z,22.89
2022-10-18T15:48:38.589Z,22.84
2022-10-18T15:51:26.689Z,22.62
2022-10-18T15:53:54.334Z,22.29
2022-10-18T15:56:34.010Z,22.03
2022-10-18T15:59:04.102Z,21.92
2022-10-18T16:01:38.333Z,21.87
2022-10-18T16:04:12.098Z,21.76
2022-10-18T16:06:38.677Z,21.55
2022-10-18T16:09:05.647Z,21.28
2022-10-18T16:11:32.363Z,21.17
2022-10-18T16:14:00.433Z,21.06
2022-10-18T16:16:29.167Z,20.93
2022-10-18T16:18:56.370Z,20.70
2022-10-18T16:21:30.102Z,20.44
2022-10-18T16:23:56.734Z,20.29
2022-10-18T16:26:24.677Z,20.03
2022-10-18T16:28:51.836Z,19.92
2022-10-18T16:31:21.307Z,19.76
2022-10-18T16:33:48.661Z,19.55
2022-10-18T16:36:23.950Z,19.44
2022-10-18T16:38:51.385Z,19.34
2022-10-18T16:41:18.200Z,19.21
2022-10-18T16:43:46.265Z,19.12
2022-10-18T16:46:24.811Z,18.92
2022-10-18T16:48:51.750Z,18.65
2022-10-18T16:51:18.336Z,18.62
2022-10-18T16:53:45.482Z,18.52
2022-10-18T16:56:18.210Z,18.44
2022-10-18T16:58:45.328Z,18.35
2022-10-18T17:01:13.786Z,18.14
2022-10-18T17:03:40.494Z,18.07
2022-10-18T17:06:18.715Z,17.93
2022-10-18T17:08:45.653Z,17.83
2022-10-18T17:11:14.190Z,17.72
2022-10-18T17:13:40.749Z,17.50
2022-10-18T17:16:13.281Z,17.39
2022-10-18T17:18:39.742Z,17.33
2022-10-18T17:21:06.189Z,17.25
2022-10-18T17:23:34.061Z,17.10
2022-10-18T17:26:07.173Z,17.00
2022-10-18T17:28:41.737Z,16.93
2022-10-18T17:31:08.229Z,16.79
2022-10-18T17:33:34.812Z,16.66
2022-10-18T17:36:01.272Z,16.62
2022-10-18T17:38:27.819Z,16.57
2022-10-18T17:40:54.489Z,16.54
2022-10-18T17:43:20.976Z,16.44
2022-10-18T17:45:54.293Z,16.33
2022-10-18T17:48:21.972Z,16.22
2022-10-18T17:50:48.722Z,16.02
2022-10-18T17:53:16.557Z,15.93
2022-10-18T17:55:43.008Z,15.88
2022-10-18T17:58:10.099Z,15.87
2022-10-18T18:00:36.544Z,15.81
2022-10-18T18:03:03.157Z,15.72
2022-10-18T18:05:31.466Z,15.71
2022-10-18T18:08:02.707Z,15.70
2022-10-18T18:10:32.988Z,15.66
2022-10-18T18:12:59.662Z,15.64
2022-10-18T18:15:26.135Z,15.60
2022-10-18T18:17:57.196Z,15.55
2022-10-18T18:20:24.487Z,15.47
2022-10-18T18:22:51.456Z,15.39
2022-10-18T18:25:17.986Z,15.35
2022-10-18T18:27:44.523Z,15.34
2022-10-18T18:30:11.445Z,15.28
2022-10-18T18:32:39.603Z,15.16
2022-10-18T18:35:06.372Z,15.09
2022-10-18T18:37:32.801Z,15.06
2022-10-18T18:39:59.251Z,15.00
2022-10-18T18:42:25.791Z,14.84
2022-10-18T18:44:52.254Z,14.75
2022-10-18T18:47:21.621Z,14.70
2022-10-18T18:49:48.837Z,14.66
2022-10-18T18:52:15.433Z,14.63
2022-10-18T18:54:41.877Z,14.61
2022-10-18T18:57:08.355Z,14.53
2022-10-18T18:59:34.779Z,14.39
2022-10-18T19:02:01.233Z,14.36
2022-10-18T19:04:28.990Z,14.34
2022-10-18T19:06:55.771Z,14.27
2022-10-18T19:09:22.922Z,14.31
2022-10-18T19:11:52.319Z,14.18
2022-10-18T19:14:19.607Z,14.09
2022-10-18T19:16:47.435Z,14.00
2022-10-18T19:19:19.624Z,13.97
2022-10-18T19:21:49.413Z,14.02
2022-10-18T19:24:15.958Z,14.08
2022-10-18T19:26:47.510Z,14.07
2022-10-18T19:29:23.203Z,14.03
2022-10-18T19:31:56.008Z,13.93
2022-10-18T19:34:24.345Z,13.86
2022-10-18T19:36:51.831Z,13.87
2022-10-18T19:39:23.264Z,13.81
2022-10-18T19:41:53.065Z,13.79
2022-10-18T19:44:19.984Z,13.80
2022-10-18T19:46:47.039Z,13.78
2022-10-18T19:49:14.001Z,13.75
2022-10-18T19:51:41.011Z,13.65
2022-10-18T19:54:07.586Z,13.61
2022-10-18T19:56:34.105Z,13.57
2022-10-18T19:59:00.685Z,13.48
2022-10-18T20:01:28.577Z,13.45
2022-10-18T20:03:55.645Z,13.38
2022-10-18T20:06:22.260Z,13.38
2022-10-18T20:08:48.937Z,13.34
2022-10-18T20:11:21.310Z,13.27
2022-10-18T20:13:47.818Z,13.20
2022-10-18T20:16:16.545Z,13.21
2022-10-18T20:18:45.819Z,13.20
2022-10-18T20:21:15.408Z,13.23
2022-10-18T20:23:43.571Z,13.20
2022-10-18T20:26:18.287Z,13.18
2022-10-18T20:28:56.879Z,13.18
2022-10-18T20:31:31.713Z,13.17
2022-10-18T20:34:00.963Z,13.18
2022-10-18T20:36:29.228Z,13.16
2022-10-18T20:38:56.475Z,13.17
2022-10-18T20:41:28.168Z,13.20
2022-10-18T20:44:00.698Z,13.13
2022-10-18T20:46:30.429Z,13.15
2022-10-18T20:48:57.039Z,13.14
2022-10-18T20:51:24.232Z,13.10
2022-10-18T20:53:51.518Z,13.11
2022-10-18T20:56:21.141Z,13.18
2022-10-18T20:58:53.237Z,13.16
2022-10-18T21:01:23.648Z,13.13
2022-10-18T21:03:52.014Z,13.09
2022-10-18T21:06:23.136Z,13.10
2022-10-18T21:08:58.001Z,13.13
2022-10-18T21:11:25.574Z,13.15
2022-10-18T21:13:58.853Z,13.14
2022-10-18T21:16:26.334Z,13.14
2022-10-18T21:18:52.858Z,13.13
2022-10-18T21:21:24.469Z,13.09
2022-10-18T21:23:51.922Z,13.08
2022-10-18T21:26:23.975Z,13.05
2022-10-18T21:28:52.505Z,13.05
2022-10-18T21:31:21.410Z,13.00
2022-10-18T21:33:53.492Z,12.96
2022-10-18T21:36:20.090Z,12.98
2022-10-18T21:38:46.906Z,13.04
2022-10-18T21:41:15.970Z,13.06
2022-10-18T21:43:45.439Z,13.04
2022-10-18T21:46:13.474Z,13.07
2022-10-18T21:48:43.939Z,13.07
2022-10-18T21:51:10.919Z,13.09
2022-10-18T21:53:37.393Z,13.14
2022-10-18T21:56:08.947Z,13.16
2022-10-18T21:58:36.725Z,13.16
2022-10-18T22:01:15.363Z,13.18
2022-10-18T22:03:43.084Z,13.22
2022-10-18T22:06:16.363Z,13.26
2022-10-18T22:08:47.465Z,13.24
2022-10-18T22:11:14.319Z,13.22
2022-10-18T22:13:41.542Z,13.25
2022-10-18T22:16:09.709Z,13.24
2022-10-18T22:18:36.590Z,13.24
2022-10-18T22:21:06.226Z,13.20
2022-10-18T22:23:41.740Z,13.22
2022-10-18T22:26:18.922Z,13.19
2022-10-18T22:28:46.333Z,13.15
2022-10-18T22:31:24.771Z,13.13
2022-10-18T22:33:56.609Z,13.17
2022-10-18T22:36:24.735Z,13.22
2022-10-18T22:38:51.378Z,13.25
2022-10-18T22:41:17.905Z,13.21
2022-10-18T22:43:45.171Z,13.25
2022-10-18T22:46:13.653Z,13.28
2022-10-18T22:48:41.058Z,13.27
2022-10-18T22:51:08.710Z,13.33
2022-10-18T22:53:36.031Z,13.33
2022-10-18T22:56:03.219Z,13.32
2022-10-18T22:58:30.015Z,13.36
2022-10-18T23:01:07.613Z,13.40
2022-10-18T23:03:34.266Z,13.45
2022-10-18T23:06:01.018Z,13.43
2022-10-18T23:08:27.929Z,13.40
2022-10-18T23:10:57.402Z,13.41
2022-10-18T23:13:25.523Z,13.46
2022-10-18T23:15:52.823Z,13.45
2022-10-18T23:18:19.633Z,13.46
2022-10-18T23:20:46.140Z,13.47
2022-10-18T23:23:12.932Z,13.46
2022-10-18T23:25:40.224Z,13.41
2022-10-18T23:28:06.862Z,13.43
2022-10-18T23:30:33.831Z,13.41
2022-10-18T23:33:00.334Z,13.45
2022-10-18T23:35:29.249Z,13.44
2022-10-18T23:37:55.712Z,13.48
2022-10-18T23:40:22.127Z,13.49
2022-10-18T23:42:48.620Z,13.48
2022-10-18T23:45:15.147Z,13.52
2022-10-18T23:47:41.573Z,13.55
2022-10-18T23:50:08.419Z,13.57
2022-10-18T23:52:34.849Z,13.54
2022-10-18T23:55:01.262Z,13.53
2022-10-18T23:57:27.784Z,13.54
2022-10-18T23:59:54.197Z,13.51
